sensor_id;sensor_type;location;lat;lon;timestamp;P1;durP1;ratioP1;P2;durP2;ratioP2
59127;SDS011;44912;52.754;5.994;2023-09-12T00:01:04;42.92;;;32.70;;
59127;SDS011;44912;52.754;5.994;2023-09-12T00:03:31;42.50;;;34.20;;
59127;SDS011;44912;52.754;5.994;2023-09-12T00:05:57;42.40;;;32.80;;
59127;SDS011;44912;52.754;5.994;2023-09-12T00:08:24;42.97;;;33.53;;
59127;SDS011;44912;52.754;5.994;2023-09-12T00:11:00;44.65;;;33.05;;
59127;SDS011;44912;52.754;5.994;2023-09-12T00:13:27;41.75;;;32.92;;
59127;SDS011;44912;52.754;5.994;2023-09-12T00:15:53;40.28;;;31.05;;
59127;SDS011;44912;52.754;5.994;2023-09-12T00:18:19;37.58;;;29.77;;
59127;SDS011;44912;52.754;5.994;2023-09-12T00:20:44;37.05;;;31.00;;
59127;SDS011;44912;52.754;5.994;2023-09-12T00:23:10;41.97;;;31.95;;
59127;SDS011;44912;52.754;5.994;2023-09-12T00:25:35;35.83;;;28.85;;
59127;SDS011;44912;52.754;5.994;2023-09-12T00:28:01;35.63;;;29.00;;
59127;SDS011;44912;52.754;5.994;2023-09-12T00:30:26;35.58;;;28.48;;
59127;SDS011;44912;52.754;5.994;2023-09-12T00:32:52;38.17;;;29.02;;
59127;SDS011;44912;52.754;5.994;2023-09-12T00:35:17;37.63;;;30.33;;
59127;SDS011;44912;52.754;5.994;2023-09-12T00:37:43;34.85;;;29.20;;
59127;SDS011;44912;52.754;5.994;2023-09-12T00:40:09;38.45;;;30.08;;
59127;SDS011;44912;52.754;5.994;2023-09-12T00:42:34;39.30;;;31.05;;
59127;SDS011;44912;52.754;5.994;2023-09-12T00:45:00;40.67;;;31.10;;
59127;SDS011;44912;52.754;5.994;2023-09-12T00:47:26;42.83;;;31.45;;
59127;SDS011;44912;52.754;5.994;2023-09-12T00:49:52;42.20;;;32.00;;
59127;SDS011;44912;52.754;5.994;2023-09-12T00:52:20;44.50;;;33.30;;
59127;SDS011;44912;52.754;5.994;2023-09-12T00:54:46;44.10;;;33.00;;
59127;SDS011;44912;52.754;5.994;2023-09-12T00:57:12;48.70;;;34.10;;
59127;SDS011;44912;52.754;5.994;2023-09-12T00:59:38;47.15;;;34.58;;
59127;SDS011;44912;52.754;5.994;2023-09-12T01:02:04;46.28;;;35.22;;
59127;SDS011;44912;52.754;5.994;2023-09-12T01:04:31;44.65;;;34.10;;
59127;SDS011;44912;52.754;5.994;2023-09-12T01:06:57;50.53;;;36.92;;
59127;SDS011;44912;52.754;5.994;2023-09-12T01:09:23;45.10;;;33.28;;
59127;SDS011;44912;52.754;5.994;2023-09-12T01:11:49;345.50;;;27.75;;
59127;SDS011;44912;52.754;5.994;2023-09-12T01:14:15;93.20;;;19.17;;
59127;SDS011;44912;52.754;5.994;2023-09-12T01:16:40;371.92;;;24.05;;
59127;SDS011;44912;52.754;5.994;2023-09-12T01:19:06;220.70;;;21.13;;
59127;SDS011;44912;52.754;5.994;2023-09-12T01:27:30;35.75;;;27.83;;
59127;SDS011;44912;52.754;5.994;2023-09-12T01:30:02;36.30;;;27.75;;
59127;SDS011;44912;52.754;5.994;2023-09-12T01:32:31;34.15;;;27.70;;
59127;SDS011;44912;52.754;5.994;2023-09-12T01:34:58;31.85;;;25.40;;
59127;SDS011;44912;52.754;5.994;2023-09-12T01:37:24;31.15;;;25.52;;
59127;SDS011;44912;52.754;5.994;2023-09-12T01:39:49;35.65;;;27.98;;
59127;SDS011;44912;52.754;5.994;2023-09-12T01:42:16;43.90;;;32.10;;
59127;SDS011;44912;52.754;5.994;2023-09-12T01:44:44;47.88;;;33.63;;
59127;SDS011;44912;52.754;5.994;2023-09-12T01:47:10;50.53;;;36.10;;
59127;SDS011;44912;52.754;5.994;2023-09-12T01:49:39;57.42;;;38.13;;
59127;SDS011;44912;52.754;5.994;2023-09-12T01:52:07;56.83;;;38.20;;
59127;SDS011;44912;52.754;5.994;2023-09-12T01:54:32;55.00;;;37.58;;
59127;SDS011;44912;52.754;5.994;2023-09-12T01:56:59;57.65;;;38.72;;
59127;SDS011;44912;52.754;5.994;2023-09-12T01:59:26;56.60;;;37.78;;
59127;SDS011;44912;52.754;5.994;2023-09-12T02:01:53;62.35;;;38.60;;
59127;SDS011;44912;52.754;5.994;2023-09-12T02:04:18;41.60;;;29.77;;
59127;SDS011;44912;52.754;5.994;2023-09-12T02:06:44;39.92;;;29.75;;
59127;SDS011;44912;52.754;5.994;2023-09-12T02:09:09;45.50;;;31.95;;
59127;SDS011;44912;52.754;5.994;2023-09-12T02:11:35;48.58;;;32.38;;
59127;SDS011;44912;52.754;5.994;2023-09-12T02:14:01;49.03;;;34.47;;
59127;SDS011;44912;52.754;5.994;2023-09-12T02:16:26;65.03;;;42.55;;
59127;SDS011;44912;52.754;5.994;2023-09-12T02:18:52;69.38;;;45.22;;
59127;SDS011;44912;52.754;5.994;2023-09-12T02:21:17;66.00;;;44.22;;
59127;SDS011;44912;52.754;5.994;2023-09-12T02:23:43;68.65;;;43.97;;
59127;SDS011;44912;52.754;5.994;2023-09-12T02:26:09;69.03;;;45.95;;
59127;SDS011;44912;52.754;5.994;2023-09-12T02:28:34;77.30;;;47.42;;
59127;SDS011;44912;52.754;5.994;2023-09-12T02:31:00;72.88;;;47.55;;
59127;SDS011;44912;52.754;5.994;2023-09-12T02:33:25;72.78;;;47.38;;
59127;SDS011;44912;52.754;5.994;2023-09-12T02:35:51;69.90;;;45.28;;
59127;SDS011;44912;52.754;5.994;2023-09-12T02:38:17;67.03;;;45.15;;
59127;SDS011;44912;52.754;5.994;2023-09-12T02:40:43;71.47;;;45.30;;
59127;SDS011;44912;52.754;5.994;2023-09-12T02:43:08;70.97;;;45.17;;
59127;SDS011;44912;52.754;5.994;2023-09-12T02:45:34;72.43;;;44.50;;
59127;SDS011;44912;52.754;5.994;2023-09-12T02:47:59;67.22;;;43.92;;
59127;SDS011;44912;52.754;5.994;2023-09-12T02:50:25;70.78;;;44.50;;
59127;SDS011;44912;52.754;5.994;2023-09-12T02:52:50;67.03;;;42.92;;
59127;SDS011;44912;52.754;5.994;2023-09-12T02:55:16;67.20;;;43.05;;
59127;SDS011;44912;52.754;5.994;2023-09-12T02:57:41;64.38;;;40.70;;
59127;SDS011;44912;52.754;5.994;2023-09-12T03:00:07;65.38;;;41.83;;
59127;SDS011;44912;52.754;5.994;2023-09-12T03:02:34;61.33;;;41.90;;
59127;SDS011;44912;52.754;5.994;2023-09-12T03:04:59;57.72;;;39.75;;
59127;SDS011;44912;52.754;5.994;2023-09-12T03:07:26;58.00;;;38.17;;
59127;SDS011;44912;52.754;5.994;2023-09-12T03:09:52;59.65;;;38.88;;
59127;SDS011;44912;52.754;5.994;2023-09-12T03:12:17;59.47;;;38.55;;
59127;SDS011;44912;52.754;5.994;2023-09-12T03:14:43;60.95;;;38.85;;
59127;SDS011;44912;52.754;5.994;2023-09-12T03:17:08;60.92;;;38.83;;
59127;SDS011;44912;52.754;5.994;2023-09-12T03:19:34;59.08;;;37.63;;
59127;SDS011;44912;52.754;5.994;2023-09-12T03:21:59;58.33;;;38.88;;
59127;SDS011;44912;52.754;5.994;2023-09-12T03:24:25;59.45;;;39.50;;
59127;SDS011;44912;52.754;5.994;2023-09-12T03:26:51;57.97;;;37.75;;
59127;SDS011;44912;52.754;5.994;2023-09-12T03:29:16;55.47;;;35.85;;
59127;SDS011;44912;52.754;5.994;2023-09-12T03:31:42;64.18;;;40.38;;
59127;SDS011;44912;52.754;5.994;2023-09-12T03:34:08;70.30;;;41.03;;
59127;SDS011;44912;52.754;5.994;2023-09-12T03:36:33;62.30;;;41.33;;
59127;SDS011;44912;52.754;5.994;2023-09-12T03:38:59;64.03;;;40.35;;
59127;SDS011;44912;52.754;5.994;2023-09-12T03:41:24;63.90;;;41.03;;
59127;SDS011;44912;52.754;5.994;2023-09-12T03:43:53;59.45;;;39.50;;
59127;SDS011;44912;52.754;5.994;2023-09-12T03:46:20;73.22;;;38.33;;
59127;SDS011;44912;52.754;5.994;2023-09-12T03:48:46;335.90;;;26.90;;
59127;SDS011;44912;52.754;5.994;2023-09-12T03:51:12;299.85;;;26.15;;
59127;SDS011;44912;52.754;5.994;2023-09-12T03:53:38;295.85;;;24.90;;
59127;SDS011;44912;52.754;5.994;2023-09-12T03:56:03;30.08;;;22.15;;
59127;SDS011;44912;52.754;5.994;2023-09-12T03:58:29;49.83;;;31.10;;
59127;SDS011;44912;52.754;5.994;2023-09-12T04:00:55;49.95;;;34.78;;
59127;SDS011;44912;52.754;5.994;2023-09-12T04:03:20;70.10;;;41.85;;
59127;SDS011;44912;52.754;5.994;2023-09-12T04:05:46;86.07;;;45.42;;
59127;SDS011;44912;52.754;5.994;2023-09-12T04:08:12;248.18;;;38.45;;
59127;SDS011;44912;52.754;5.994;2023-09-12T04:10:38;246.38;;;36.83;;
59127;SDS011;44912;52.754;5.994;2023-09-12T04:13:04;128.02;;;33.15;;
59127;SDS011;44912;52.754;5.994;2023-09-12T04:15:29;62.20;;;32.83;;
59127;SDS011;44912;52.754;5.994;2023-09-12T04:17:55;85.88;;;35.20;;
59127;SDS011;44912;52.754;5.994;2023-09-12T04:20:20;82.22;;;34.95;;
59127;SDS011;44912;52.754;5.994;2023-09-12T04:22:46;82.90;;;34.50;;
59127;SDS011;44912;52.754;5.994;2023-09-12T04:25:11;286.00;;;34.05;;
59127;SDS011;44912;52.754;5.994;2023-09-12T04:27:37;217.02;;;33.20;;
59127;SDS011;44912;52.754;5.994;2023-09-12T04:30:03;249.35;;;31.60;;
59127;SDS011;44912;52.754;5.994;2023-09-12T04:32:29;185.52;;;32.70;;
59127;SDS011;44912;52.754;5.994;2023-09-12T04:34:55;185.05;;;29.73;;
59127;SDS011;44912;52.754;5.994;2023-09-12T04:37:20;178.02;;;29.20;;
59127;SDS011;44912;52.754;5.994;2023-09-12T04:39:46;76.13;;;31.38;;
59127;SDS011;44912;52.754;5.994;2023-09-12T04:42:11;45.42;;;31.27;;
59127;SDS011;44912;52.754;5.994;2023-09-12T04:44:38;51.00;;;35.75;;
59127;SDS011;44912;52.754;5.994;2023-09-12T04:47:05;57.50;;;36.28;;
59127;SDS011;44912;52.754;5.994;2023-09-12T04:49:30;80.10;;;34.25;;
59127;SDS011;44912;52.754;5.994;2023-09-12T04:51:56;305.40;;;25.40;;
59127;SDS011;44912;52.754;5.994;2023-09-12T04:54:21;176.73;;;27.20;;
59127;SDS011;44912;52.754;5.994;2023-09-12T04:56:47;432.10;;;32.22;;
59127;SDS011;44912;52.754;5.994;2023-09-12T04:59:12;147.32;;;30.50;;
59127;SDS011;44912;52.754;5.994;2023-09-12T05:01:38;100.18;;;31.27;;
59127;SDS011;44912;52.754;5.994;2023-09-12T05:04:04;143.32;;;32.22;;
59127;SDS011;44912;52.754;5.994;2023-09-12T05:06:29;112.60;;;32.38;;
59127;SDS011;44912;52.754;5.994;2023-09-12T05:08:55;137.40;;;33.28;;
59127;SDS011;44912;52.754;5.994;2023-09-12T05:11:22;53.50;;;34.63;;
59127;SDS011;44912;52.754;5.994;2023-09-12T05:13:49;53.50;;;34.20;;
59127;SDS011;44912;52.754;5.994;2023-09-12T05:16:14;56.08;;;36.78;;
59127;SDS011;44912;52.754;5.994;2023-09-12T05:18:40;118.15;;;36.30;;
59127;SDS011;44912;52.754;5.994;2023-09-12T05:21:05;142.18;;;40.10;;
59127;SDS011;44912;52.754;5.994;2023-09-12T05:23:31;90.22;;;36.25;;
59127;SDS011;44912;52.754;5.994;2023-09-12T05:25:57;141.63;;;36.60;;
59127;SDS011;44912;52.754;5.994;2023-09-12T05:28:22;268.70;;;38.40;;
59127;SDS011;44912;52.754;5.994;2023-09-12T05:30:48;241.27;;;38.53;;
59127;SDS011;44912;52.754;5.994;2023-09-12T05:33:13;82.28;;;37.17;;
59127;SDS011;44912;52.754;5.994;2023-09-12T05:35:39;59.45;;;38.03;;
59127;SDS011;44912;52.754;5.994;2023-09-12T05:38:05;64.55;;;40.15;;
59127;SDS011;44912;52.754;5.994;2023-09-12T05:40:30;77.07;;;44.10;;
59127;SDS011;44912;52.754;5.994;2023-09-12T05:42:56;81.85;;;44.95;;
59127;SDS011;44912;52.754;5.994;2023-09-12T05:45:22;77.50;;;43.97;;
59127;SDS011;44912;52.754;5.994;2023-09-12T05:47:48;81.28;;;44.53;;
59127;SDS011;44912;52.754;5.994;2023-09-12T05:50:15;100.97;;;46.10;;
59127;SDS011;44912;52.754;5.994;2023-09-12T05:52:41;81.30;;;46.50;;
59127;SDS011;44912;52.754;5.994;2023-09-12T05:55:08;83.13;;;45.65;;
59127;SDS011;44912;52.754;5.994;2023-09-12T05:57:34;88.63;;;47.15;;
59127;SDS011;44912;52.754;5.994;2023-09-12T05:59:59;104.07;;;46.70;;
59127;SDS011;44912;52.754;5.994;2023-09-12T06:02:26;83.25;;;46.60;;
59127;SDS011;44912;52.754;5.994;2023-09-12T06:04:52;86.97;;;44.25;;
59127;SDS011;44912;52.754;5.994;2023-09-12T06:07:18;88.03;;;46.78;;
59127;SDS011;44912;52.754;5.994;2023-09-12T06:09:44;81.72;;;47.42;;
59127;SDS011;44912;52.754;5.994;2023-09-12T06:12:10;80.03;;;46.22;;
59127;SDS011;44912;52.754;5.994;2023-09-12T06:14:35;78.95;;;45.42;;
59127;SDS011;44912;52.754;5.994;2023-09-12T06:17:01;76.85;;;46.05;;
59127;SDS011;44912;52.754;5.994;2023-09-12T06:19:26;77.95;;;46.35;;
59127;SDS011;44912;52.754;5.994;2023-09-12T06:21:52;74.47;;;44.83;;
59127;SDS011;44912;52.754;5.994;2023-09-12T06:24:21;75.30;;;45.38;;
59127;SDS011;44912;52.754;5.994;2023-09-12T06:26:47;80.43;;;46.00;;
59127;SDS011;44912;52.754;5.994;2023-09-12T06:29:13;75.03;;;44.50;;
59127;SDS011;44912;52.754;5.994;2023-09-12T06:31:39;74.75;;;45.95;;
59127;SDS011;44912;52.754;5.994;2023-09-12T06:34:06;84.03;;;45.28;;
59127;SDS011;44912;52.754;5.994;2023-09-12T06:36:35;72.57;;;43.45;;
59127;SDS011;44912;52.754;5.994;2023-09-12T06:39:01;76.38;;;45.72;;
59127;SDS011;44912;52.754;5.994;2023-09-12T06:41:29;72.90;;;43.38;;
59127;SDS011;44912;52.754;5.994;2023-09-12T06:43:55;80.13;;;45.67;;
59127;SDS011;44912;52.754;5.994;2023-09-12T06:46:22;77.25;;;45.67;;
59127;SDS011;44912;52.754;5.994;2023-09-12T06:48:47;76.53;;;45.45;;
59127;SDS011;44912;52.754;5.994;2023-09-12T06:51:15;73.97;;;44.70;;
59127;SDS011;44912;52.754;5.994;2023-09-12T06:53:41;81.10;;;47.17;;
59127;SDS011;44912;52.754;5.994;2023-09-12T06:56:07;76.10;;;45.03;;
59127;SDS011;44912;52.754;5.994;2023-09-12T06:58:32;73.50;;;44.45;;
59127;SDS011;44912;52.754;5.994;2023-09-12T07:01:02;75.38;;;45.40;;
59127;SDS011;44912;52.754;5.994;2023-09-12T07:03:34;68.50;;;43.38;;
59127;SDS011;44912;52.754;5.994;2023-09-12T07:06:01;68.18;;;42.58;;
59127;SDS011;44912;52.754;5.994;2023-09-12T07:08:28;71.15;;;44.13;;
59127;SDS011;44912;52.754;5.994;2023-09-12T07:10:55;70.85;;;44.92;;
59127;SDS011;44912;52.754;5.994;2023-09-12T07:13:22;70.03;;;43.67;;
59127;SDS011;44912;52.754;5.994;2023-09-12T07:15:48;66.32;;;42.58;;
59127;SDS011;44912;52.754;5.994;2023-09-12T07:18:14;65.40;;;43.03;;
59127;SDS011;44912;52.754;5.994;2023-09-12T07:20:40;66.90;;;43.63;;
59127;SDS011;44912;52.754;5.994;2023-09-12T07:23:06;66.72;;;42.90;;
59127;SDS011;44912;52.754;5.994;2023-09-12T07:25:36;63.53;;;42.65;;
59127;SDS011;44912;52.754;5.994;2023-09-12T07:28:04;64.90;;;44.00;;
59127;SDS011;44912;52.754;5.994;2023-09-12T07:30:30;67.13;;;43.20;;
59127;SDS011;44912;52.754;5.994;2023-09-12T07:32:56;65.57;;;42.88;;
59127;SDS011;44912;52.754;5.994;2023-09-12T07:35:21;69.28;;;43.70;;
59127;SDS011;44912;52.754;5.994;2023-09-12T07:37:49;62.85;;;41.70;;
59127;SDS011;44912;52.754;5.994;2023-09-12T07:40:15;68.43;;;43.22;;
59127;SDS011;44912;52.754;5.994;2023-09-12T07:42:40;67.78;;;42.85;;
59127;SDS011;44912;52.754;5.994;2023-09-12T07:45:06;62.28;;;40.63;;
59127;SDS011;44912;52.754;5.994;2023-09-12T07:47:32;63.97;;;42.63;;
59127;SDS011;44912;52.754;5.994;2023-09-12T07:49:58;63.45;;;42.55;;
59127;SDS011;44912;52.754;5.994;2023-09-12T07:52:25;64.13;;;41.58;;
59127;SDS011;44912;52.754;5.994;2023-09-12T07:54:51;63.30;;;42.70;;
59127;SDS011;44912;52.754;5.994;2023-09-12T07:57:22;65.78;;;41.70;;
59127;SDS011;44912;52.754;5.994;2023-09-12T07:59:48;63.60;;;43.38;;
59127;SDS011;44912;52.754;5.994;2023-09-12T08:02:13;60.33;;;40.75;;
59127;SDS011;44912;52.754;5.994;2023-09-12T08:04:39;63.97;;;42.30;;
59127;SDS011;44912;52.754;5.994;2023-09-12T08:07:04;65.25;;;43.70;;
59127;SDS011;44912;52.754;5.994;2023-09-12T08:09:49;62.70;;;43.83;;
59127;SDS011;44912;52.754;5.994;2023-09-12T08:12:17;59.88;;;42.53;;
59127;SDS011;44912;52.754;5.994;2023-09-12T08:14:43;63.13;;;44.03;;
59127;SDS011;44912;52.754;5.994;2023-09-12T08:17:10;66.72;;;43.10;;
59127;SDS011;44912;52.754;5.994;2023-09-12T08:19:36;68.13;;;45.40;;
59127;SDS011;44912;52.754;5.994;2023-09-12T08:22:01;63.67;;;44.55;;
59127;SDS011;44912;52.754;5.994;2023-09-12T08:24:27;67.47;;;45.70;;
59127;SDS011;44912;52.754;5.994;2023-09-12T08:26:52;61.88;;;43.53;;
59127;SDS011;44912;52.754;5.994;2023-09-12T08:29:19;67.15;;;47.47;;
59127;SDS011;44912;52.754;5.994;2023-09-12T08:31:45;59.97;;;43.25;;
59127;SDS011;44912;52.754;5.994;2023-09-12T08:34:12;56.63;;;42.40;;
59127;SDS011;44912;52.754;5.994;2023-09-12T08:36:37;53.40;;;40.15;;
59127;SDS011;44912;52.754;5.994;2023-09-12T08:39:03;54.67;;;40.78;;
59127;SDS011;44912;52.754;5.994;2023-09-12T08:41:30;58.63;;;40.58;;
59127;SDS011;44912;52.754;5.994;2023-09-12T08:43:55;55.25;;;39.60;;
59127;SDS011;44912;52.754;5.994;2023-09-12T08:46:21;56.10;;;41.60;;
59127;SDS011;44912;52.754;5.994;2023-09-12T08:48:48;54.38;;;40.28;;
59127;SDS011;44912;52.754;5.994;2023-09-12T08:51:14;53.22;;;39.20;;
59127;SDS011;44912;52.754;5.994;2023-09-12T08:53:40;52.35;;;39.55;;
59127;SDS011;44912;52.754;5.994;2023-09-12T08:56:06;52.05;;;38.45;;
59127;SDS011;44912;52.754;5.994;2023-09-12T08:58:32;47.95;;;36.20;;
59127;SDS011;44912;52.754;5.994;2023-09-12T09:00:59;53.33;;;37.85;;
59127;SDS011;44912;52.754;5.994;2023-09-12T09:03:25;51.55;;;38.88;;
59127;SDS011;44912;52.754;5.994;2023-09-12T09:05:52;49.63;;;35.78;;
59127;SDS011;44912;52.754;5.994;2023-09-12T09:08:21;46.72;;;35.83;;
59127;SDS011;44912;52.754;5.994;2023-09-12T09:10:57;48.33;;;37.28;;
59127;SDS011;44912;52.754;5.994;2023-09-12T09:13:24;48.42;;;36.08;;
59127;SDS011;44912;52.754;5.994;2023-09-12T09:15:59;52.13;;;37.50;;
59127;SDS011;44912;52.754;5.994;2023-09-12T09:21:31;50.83;;;37.50;;
59127;SDS011;44912;52.754;5.994;2023-09-12T09:23:58;45.58;;;36.35;;
59127;SDS011;44912;52.754;5.994;2023-09-12T09:26:25;48.15;;;34.40;;
59127;SDS011;44912;52.754;5.994;2023-09-12T09:29:07;52.15;;;37.00;;
59127;SDS011;44912;52.754;5.994;2023-09-12T09:31:34;48.70;;;36.30;;
59127;SDS011;44912;52.754;5.994;2023-09-12T09:34:00;47.92;;;34.67;;
59127;SDS011;44912;52.754;5.994;2023-09-12T09:36:27;43.60;;;33.50;;
59127;SDS011;44912;52.754;5.994;2023-09-12T09:38:54;44.45;;;32.10;;
59127;SDS011;44912;52.754;5.994;2023-09-12T09:41:21;43.85;;;32.78;;
59127;SDS011;44912;52.754;5.994;2023-09-12T09:43:50;45.03;;;33.67;;
59127;SDS011;44912;52.754;5.994;2023-09-12T09:46:17;42.47;;;32.63;;
59127;SDS011;44912;52.754;5.994;2023-09-12T09:48:49;42.50;;;31.05;;
59127;SDS011;44912;52.754;5.994;2023-09-12T09:51:16;43.35;;;33.50;;
59127;SDS011;44912;52.754;5.994;2023-09-12T09:53:42;41.75;;;30.50;;
59127;SDS011;44912;52.754;5.994;2023-09-12T09:58:42;38.60;;;28.98;;
59127;SDS011;44912;52.754;5.994;2023-09-12T10:01:18;41.75;;;28.25;;
59127;SDS011;44912;52.754;5.994;2023-09-12T10:04:02;39.28;;;29.40;;
59127;SDS011;44912;52.754;5.994;2023-09-12T10:06:28;36.53;;;27.00;;
59127;SDS011;44912;52.754;5.994;2023-09-12T10:08:56;37.42;;;27.60;;
59127;SDS011;44912;52.754;5.994;2023-09-12T10:11:27;40.33;;;29.05;;
59127;SDS011;44912;52.754;5.994;2023-09-12T10:13:57;39.00;;;28.50;;
59127;SDS011;44912;52.754;5.994;2023-09-12T10:16:34;31.67;;;23.25;;
59127;SDS011;44912;52.754;5.994;2023-09-12T10:19:22;32.15;;;23.42;;
59127;SDS011;44912;52.754;5.994;2023-09-12T10:21:50;35.25;;;23.55;;
59127;SDS011;44912;52.754;5.994;2023-09-12T10:24:33;31.65;;;23.55;;
59127;SDS011;44912;52.754;5.994;2023-09-12T10:27:00;33.97;;;23.75;;
59127;SDS011;44912;52.754;5.994;2023-09-12T10:29:27;35.45;;;25.08;;
59127;SDS011;44912;52.754;5.994;2023-09-12T10:31:53;31.17;;;22.17;;
59127;SDS011;44912;52.754;5.994;2023-09-12T10:34:19;32.03;;;22.98;;
59127;SDS011;44912;52.754;5.994;2023-09-12T10:36:45;34.38;;;26.08;;
59127;SDS011;44912;52.754;5.994;2023-09-12T10:39:13;32.50;;;24.73;;
59127;SDS011;44912;52.754;5.994;2023-09-12T10:41:40;33.92;;;22.73;;
59127;SDS011;44912;52.754;5.994;2023-09-12T10:44:14;25.85;;;19.63;;
59127;SDS011;44912;52.754;5.994;2023-09-12T10:46:42;31.52;;;20.77;;
59127;SDS011;44912;52.754;5.994;2023-09-12T10:49:11;28.60;;;20.02;;
59127;SDS011;44912;52.754;5.994;2023-09-12T10:51:41;27.50;;;18.42;;
59127;SDS011;44912;52.754;5.994;2023-09-12T10:54:08;28.17;;;20.23;;
59127;SDS011;44912;52.754;5.994;2023-09-12T10:56:37;26.88;;;19.33;;
59127;SDS011;44912;52.754;5.994;2023-09-12T11:01:29;23.77;;;17.55;;
59127;SDS011;44912;52.754;5.994;2023-09-12T11:03:55;23.00;;;16.80;;
59127;SDS011;44912;52.754;5.994;2023-09-12T11:06:30;28.58;;;19.45;;
59127;SDS011;44912;52.754;5.994;2023-09-12T11:14:07;24.10;;;17.33;;
59127;SDS011;44912;52.754;5.994;2023-09-12T11:16:33;23.35;;;16.33;;
59127;SDS011;44912;52.754;5.994;2023-09-12T11:19:19;23.27;;;17.05;;
59127;SDS011;44912;52.754;5.994;2023-09-12T11:21:54;22.55;;;17.45;;
59127;SDS011;44912;52.754;5.994;2023-09-12T11:24:21;24.25;;;18.42;;
59127;SDS011;44912;52.754;5.994;2023-09-12T11:29:26;27.77;;;19.67;;
59127;SDS011;44912;52.754;5.994;2023-09-12T11:32:02;28.75;;;20.60;;
59127;SDS011;44912;52.754;5.994;2023-09-12T11:34:29;25.98;;;18.10;;
59127;SDS011;44912;52.754;5.994;2023-09-12T11:37:01;21.85;;;15.50;;
59127;SDS011;44912;52.754;5.994;2023-09-12T11:39:35;23.17;;;16.48;;
59127;SDS011;44912;52.754;5.994;2023-09-12T11:42:02;21.33;;;16.23;;
59127;SDS011;44912;52.754;5.994;2023-09-12T11:44:29;22.15;;;15.35;;
59127;SDS011;44912;52.754;5.994;2023-09-12T11:47:01;22.20;;;16.77;;
59127;SDS011;44912;52.754;5.994;2023-09-12T11:49:38;23.13;;;16.35;;
59127;SDS011;44912;52.754;5.994;2023-09-12T11:52:08;23.88;;;17.13;;
59127;SDS011;44912;52.754;5.994;2023-09-12T11:54:43;28.50;;;19.60;;
59127;SDS011;44912;52.754;5.994;2023-09-12T11:57:10;28.48;;;20.23;;
59127;SDS011;44912;52.754;5.994;2023-09-12T11:59:39;27.70;;;18.67;;
59127;SDS011;44912;52.754;5.994;2023-09-12T12:02:06;24.98;;;17.52;;
59127;SDS011;44912;52.754;5.994;2023-09-12T12:04:32;21.02;;;16.02;;
59127;SDS011;44912;52.754;5.994;2023-09-12T12:06:59;22.23;;;18.08;;
59127;SDS011;44912;52.754;5.994;2023-09-12T12:09:26;25.95;;;19.10;;
59127;SDS011;44912;52.754;5.994;2023-09-12T12:11:52;51.45;;;26.98;;
59127;SDS011;44912;52.754;5.994;2023-09-12T12:14:18;26.45;;;20.15;;
59127;SDS011;44912;52.754;5.994;2023-09-12T12:16:45;22.10;;;16.23;;
59127;SDS011;44912;52.754;5.994;2023-09-12T12:19:11;21.48;;;16.10;;
59127;SDS011;44912;52.754;5.994;2023-09-12T12:21:38;26.63;;;18.63;;
59127;SDS011;44912;52.754;5.994;2023-09-12T12:24:05;25.00;;;20.23;;
59127;SDS011;44912;52.754;5.994;2023-09-12T12:26:33;24.02;;;18.38;;
59127;SDS011;44912;52.754;5.994;2023-09-12T12:29:03;23.23;;;16.42;;
59127;SDS011;44912;52.754;5.994;2023-09-12T12:31:29;22.60;;;15.50;;
59127;SDS011;44912;52.754;5.994;2023-09-12T12:33:55;24.17;;;18.30;;
59127;SDS011;44912;52.754;5.994;2023-09-12T12:36:22;15.82;;;12.82;;
59127;SDS011;44912;52.754;5.994;2023-09-12T12:38:48;16.92;;;12.70;;
59127;SDS011;44912;52.754;5.994;2023-09-12T12:41:24;20.60;;;15.93;;
59127;SDS011;44912;52.754;5.994;2023-09-12T12:43:51;19.25;;;15.57;;
59127;SDS011;44912;52.754;5.994;2023-09-12T12:46:18;20.77;;;15.38;;
59127;SDS011;44912;52.754;5.994;2023-09-12T12:48:46;20.30;;;14.50;;
59127;SDS011;44912;52.754;5.994;2023-09-12T12:51:22;18.85;;;14.60;;
59127;SDS011;44912;52.754;5.994;2023-09-12T12:53:50;23.88;;;17.02;;
59127;SDS011;44912;52.754;5.994;2023-09-12T12:56:22;24.75;;;18.75;;
59127;SDS011;44912;52.754;5.994;2023-09-12T12:58:57;25.85;;;21.30;;
59127;SDS011;44912;52.754;5.994;2023-09-12T13:01:25;25.75;;;20.27;;
59127;SDS011;44912;52.754;5.994;2023-09-12T13:03:51;24.55;;;19.27;;
59127;SDS011;44912;52.754;5.994;2023-09-12T13:06:18;22.30;;;17.55;;
59127;SDS011;44912;52.754;5.994;2023-09-12T13:08:44;20.42;;;15.07;;
59127;SDS011;44912;52.754;5.994;2023-09-12T13:11:12;19.40;;;13.55;;
59127;SDS011;44912;52.754;5.994;2023-09-12T13:13:39;19.70;;;15.10;;
59127;SDS011;44912;52.754;5.994;2023-09-12T13:16:06;26.10;;;17.45;;
59127;SDS011;44912;52.754;5.994;2023-09-12T13:18:35;24.85;;;16.77;;
59127;SDS011;44912;52.754;5.994;2023-09-12T13:21:01;23.05;;;17.58;;
59127;SDS011;44912;52.754;5.994;2023-09-12T13:23:27;21.45;;;15.48;;
59127;SDS011;44912;52.754;5.994;2023-09-12T13:25:53;20.05;;;14.43;;
59127;SDS011;44912;52.754;5.994;2023-09-12T13:28:19;21.10;;;15.32;;
59127;SDS011;44912;52.754;5.994;2023-09-12T13:30:45;19.15;;;12.93;;
59127;SDS011;44912;52.754;5.994;2023-09-12T13:33:11;15.23;;;9.63;;
59127;SDS011;44912;52.754;5.994;2023-09-12T13:35:39;13.00;;;9.05;;
59127;SDS011;44912;52.754;5.994;2023-09-12T13:38:05;14.40;;;8.90;;
59127;SDS011;44912;52.754;5.994;2023-09-12T13:40:38;14.30;;;8.75;;
59127;SDS011;44912;52.754;5.994;2023-09-12T13:43:07;11.85;;;5.85;;
59127;SDS011;44912;52.754;5.994;2023-09-12T13:45:33;10.00;;;4.30;;
59127;SDS011;44912;52.754;5.994;2023-09-12T13:47:59;9.80;;;5.03;;
59127;SDS011;44912;52.754;5.994;2023-09-12T13:50:25;17.20;;;8.02;;
59127;SDS011;44912;52.754;5.994;2023-09-12T13:52:54;10.55;;;6.57;;
59127;SDS011;44912;52.754;5.994;2023-09-12T13:55:21;14.52;;;9.45;;
59127;SDS011;44912;52.754;5.994;2023-09-12T13:57:46;18.20;;;12.65;;
59127;SDS011;44912;52.754;5.994;2023-09-12T14:00:12;22.83;;;15.73;;
59127;SDS011;44912;52.754;5.994;2023-09-12T14:02:38;20.13;;;15.43;;
59127;SDS011;44912;52.754;5.994;2023-09-12T14:05:03;17.33;;;13.93;;
59127;SDS011;44912;52.754;5.994;2023-09-12T14:07:29;20.48;;;13.27;;
59127;SDS011;44912;52.754;5.994;2023-09-12T14:09:54;29.70;;;19.95;;
59127;SDS011;44912;52.754;5.994;2023-09-12T14:12:22;25.10;;;17.75;;
59127;SDS011;44912;52.754;5.994;2023-09-12T14:14:48;52.00;;;33.70;;
59127;SDS011;44912;52.754;5.994;2023-09-12T14:17:14;38.97;;;25.02;;
59127;SDS011;44912;52.754;5.994;2023-09-12T14:19:40;28.92;;;18.75;;
59127;SDS011;44912;52.754;5.994;2023-09-12T14:22:05;20.23;;;14.18;;
59127;SDS011;44912;52.754;5.994;2023-09-12T14:24:31;17.80;;;13.23;;
59127;SDS011;44912;52.754;5.994;2023-09-12T14:26:57;20.98;;;14.88;;
59127;SDS011;44912;52.754;5.994;2023-09-12T14:29:22;17.95;;;11.38;;
59127;SDS011;44912;52.754;5.994;2023-09-12T14:31:49;17.98;;;10.60;;
59127;SDS011;44912;52.754;5.994;2023-09-12T14:34:16;13.57;;;9.15;;
59127;SDS011;44912;52.754;5.994;2023-09-12T14:36:41;20.63;;;13.55;;
59127;SDS011;44912;52.754;5.994;2023-09-12T14:39:07;20.40;;;14.80;;
59127;SDS011;44912;52.754;5.994;2023-09-12T14:41:32;25.75;;;16.65;;